sensor_id;sensor_type;location;lat;lon;timestamp;P1;durP1;ratioP1;P2;durP2;ratioP2
72797;SDS011;61084;55.816;37.036;2023-09-12T00:01:49;21.38;;;10.82;;
72797;SDS011;61084;55.816;37.036;2023-09-12T00:04:15;22.88;;;11.25;;
72797;SDS011;61084;55.816;37.036;2023-09-12T00:06:42;21.73;;;11.38;;
72797;SDS011;61084;55.816;37.036;2023-09-12T00:09:09;22.50;;;10.40;;
72797;SDS011;61084;55.816;37.036;2023-09-12T00:11:35;22.02;;;10.65;;
72797;SDS011;61084;55.816;37.036;2023-09-12T00:14:01;19.83;;;11.50;;
72797;SDS011;61084;55.816;37.036;2023-09-12T00:16:27;22.00;;;10.82;;
72797;SDS011;61084;55.816;37.036;2023-09-12T00:18:53;21.25;;;11.25;;
72797;SDS011;61084;55.816;37.036;2023-09-12T00:21:19;22.65;;;9.95;;
72797;SDS011;61084;55.816;37.036;2023-09-12T00:23:45;20.20;;;10.43;;
72797;SDS011;61084;55.816;37.036;2023-09-12T00:26:11;22.70;;;9.98;;
72797;SDS011;61084;55.816;37.036;2023-09-12T00:28:37;17.80;;;10.40;;
72797;SDS011;61084;55.816;37.036;2023-09-12T00:31:04;22.52;;;11.55;;
72797;SDS011;61084;55.816;37.036;2023-09-12T00:33:30;23.33;;;12.23;;
72797;SDS011;61084;55.816;37.036;2023-09-12T00:35:56;23.73;;;11.77;;
72797;SDS011;61084;55.816;37.036;2023-09-12T00:38:22;20.67;;;11.18;;
72797;SDS011;61084;55.816;37.036;2023-09-12T00:40:48;26.38;;;12.25;;
72797;SDS011;61084;55.816;37.036;2023-09-12T00:43:15;23.65;;;13.15;;
72797;SDS011;61084;55.816;37.036;2023-09-12T00:45:41;26.13;;;11.25;;
72797;SDS011;61084;55.816;37.036;2023-09-12T00:48:08;24.75;;;12.60;;
72797;SDS011;61084;55.816;37.036;2023-09-12T00:50:35;23.30;;;11.48;;
72797;SDS011;61084;55.816;37.036;2023-09-12T00:53:02;26.27;;;12.63;;
72797;SDS011;61084;55.816;37.036;2023-09-12T00:55:31;23.23;;;11.13;;
72797;SDS011;61084;55.816;37.036;2023-09-12T00:57:58;23.77;;;11.43;;
72797;SDS011;61084;55.816;37.036;2023-09-12T01:00:26;22.23;;;12.02;;
72797;SDS011;61084;55.816;37.036;2023-09-12T01:02:52;28.50;;;12.38;;
72797;SDS011;61084;55.816;37.036;2023-09-12T01:05:19;23.00;;;11.60;;
72797;SDS011;61084;55.816;37.036;2023-09-12T01:07:47;24.80;;;12.38;;
72797;SDS011;61084;55.816;37.036;2023-09-12T01:10:13;26.27;;;12.27;;
72797;SDS011;61084;55.816;37.036;2023-09-12T01:12:39;20.42;;;10.77;;
72797;SDS011;61084;55.816;37.036;2023-09-12T01:15:05;22.35;;;11.50;;
72797;SDS011;61084;55.816;37.036;2023-09-12T01:17:35;24.45;;;12.90;;
72797;SDS011;61084;55.816;37.036;2023-09-12T01:20:02;23.50;;;11.40;;
72797;SDS011;61084;55.816;37.036;2023-09-12T01:27:46;28.17;;;13.25;;
72797;SDS011;61084;55.816;37.036;2023-09-12T01:30:20;22.90;;;12.20;;
72797;SDS011;61084;55.816;37.036;2023-09-12T01:32:48;24.95;;;12.05;;
72797;SDS011;61084;55.816;37.036;2023-09-12T01:37:40;22.80;;;11.18;;
72797;SDS011;61084;55.816;37.036;2023-09-12T01:40:06;23.65;;;11.05;;
72797;SDS011;61084;55.816;37.036;2023-09-12T01:42:36;31.55;;;12.55;;
72797;SDS011;61084;55.816;37.036;2023-09-12T01:45:04;24.75;;;12.93;;
72797;SDS011;61084;55.816;37.036;2023-09-12T01:47:32;21.05;;;10.88;;
72797;SDS011;61084;55.816;37.036;2023-09-12T01:49:59;24.58;;;12.27;;
72797;SDS011;61084;55.816;37.036;2023-09-12T01:52:29;21.25;;;10.43;;
72797;SDS011;61084;55.816;37.036;2023-09-12T01:54:55;19.05;;;10.70;;
72797;SDS011;61084;55.816;37.036;2023-09-12T01:57:21;19.85;;;10.93;;
72797;SDS011;61084;55.816;37.036;2023-09-12T01:59:48;20.80;;;10.07;;
72797;SDS011;61084;55.816;37.036;2023-09-12T02:02:18;21.33;;;10.85;;
72797;SDS011;61084;55.816;37.036;2023-09-12T02:04:51;23.15;;;10.88;;
72797;SDS011;61084;55.816;37.036;2023-09-12T02:07:37;21.83;;;11.68;;
72797;SDS011;61084;55.816;37.036;2023-09-12T02:10:03;23.65;;;11.30;;
72797;SDS011;61084;55.816;37.036;2023-09-12T02:12:31;20.58;;;10.48;;
72797;SDS011;61084;55.816;37.036;2023-09-12T02:14:58;23.92;;;10.93;;
72797;SDS011;61084;55.816;37.036;2023-09-12T02:17:24;18.92;;;10.57;;
72797;SDS011;61084;55.816;37.036;2023-09-12T02:19:51;21.65;;;11.75;;
72797;SDS011;61084;55.816;37.036;2023-09-12T02:22:16;21.42;;;10.82;;
72797;SDS011;61084;55.816;37.036;2023-09-12T02:24:42;20.15;;;11.00;;
72797;SDS011;61084;55.816;37.036;2023-09-12T02:27:08;20.30;;;11.45;;
72797;SDS011;61084;55.816;37.036;2023-09-12T02:29:35;22.25;;;12.52;;
72797;SDS011;61084;55.816;37.036;2023-09-12T02:32:01;28.50;;;13.65;;
72797;SDS011;61084;55.816;37.036;2023-09-12T02:34:27;25.95;;;13.05;;
72797;SDS011;61084;55.816;37.036;2023-09-12T02:36:53;26.67;;;14.63;;
72797;SDS011;61084;55.816;37.036;2023-09-12T02:39:19;21.85;;;11.60;;
72797;SDS011;61084;55.816;37.036;2023-09-12T02:41:45;25.02;;;13.48;;
72797;SDS011;61084;55.816;37.036;2023-09-12T02:44:11;23.90;;;11.98;;
72797;SDS011;61084;55.816;37.036;2023-09-12T02:46:37;23.80;;;12.43;;
72797;SDS011;61084;55.816;37.036;2023-09-12T02:49:03;19.40;;;10.70;;
72797;SDS011;61084;55.816;37.036;2023-09-12T02:51:29;24.27;;;11.98;;
72797;SDS011;61084;55.816;37.036;2023-09-12T02:53:55;22.65;;;11.95;;
72797;SDS011;61084;55.816;37.036;2023-09-12T02:56:21;21.40;;;11.40;;
72797;SDS011;61084;55.816;37.036;2023-09-12T02:58:47;24.17;;;11.45;;
72797;SDS011;61084;55.816;37.036;2023-09-12T03:01:16;25.73;;;11.65;;
72797;SDS011;61084;55.816;37.036;2023-09-12T03:03:47;22.85;;;11.18;;
72797;SDS011;61084;55.816;37.036;2023-09-12T03:06:14;30.65;;;12.48;;
72797;SDS011;61084;55.816;37.036;2023-09-12T03:08:41;27.48;;;12.25;;
72797;SDS011;61084;55.816;37.036;2023-09-12T03:11:07;23.00;;;12.02;;
72797;SDS011;61084;55.816;37.036;2023-09-12T03:16:00;23.67;;;10.90;;
72797;SDS011;61084;55.816;37.036;2023-09-12T03:18:26;26.88;;;11.15;;
72797;SDS011;61084;55.816;37.036;2023-09-12T03:20:53;22.35;;;11.15;;
72797;SDS011;61084;55.816;37.036;2023-09-12T03:23:19;23.27;;;12.15;;
72797;SDS011;61084;55.816;37.036;2023-09-12T03:25:46;26.63;;;12.95;;
72797;SDS011;61084;55.816;37.036;2023-09-12T03:28:13;22.67;;;11.43;;
72797;SDS011;61084;55.816;37.036;2023-09-12T03:30:39;23.38;;;11.95;;
72797;SDS011;61084;55.816;37.036;2023-09-12T03:33:06;25.05;;;12.02;;
72797;SDS011;61084;55.816;37.036;2023-09-12T03:35:34;23.15;;;12.15;;
72797;SDS011;61084;55.816;37.036;2023-09-12T03:38:00;27.15;;;12.30;;
72797;SDS011;61084;55.816;37.036;2023-09-12T03:40:30;30.00;;;13.88;;
72797;SDS011;61084;55.816;37.036;2023-09-12T03:42:57;26.73;;;14.07;;
72797;SDS011;61084;55.816;37.036;2023-09-12T03:47:50;30.52;;;15.20;;
72797;SDS011;61084;55.816;37.036;2023-09-12T03:50:17;26.38;;;15.07;;
72797;SDS011;61084;55.816;37.036;2023-09-12T03:52:43;24.85;;;12.45;;
72797;SDS011;61084;55.816;37.036;2023-09-12T03:55:09;23.45;;;12.15;;
72797;SDS011;61084;55.816;37.036;2023-09-12T03:57:35;26.33;;;13.48;;
72797;SDS011;61084;55.816;37.036;2023-09-12T04:00:01;26.30;;;13.60;;
72797;SDS011;61084;55.816;37.036;2023-09-12T04:02:39;29.55;;;14.52;;
72797;SDS011;61084;55.816;37.036;2023-09-12T04:05:06;32.35;;;16.27;;
72797;SDS011;61084;55.816;37.036;2023-09-12T04:07:32;32.97;;;16.65;;
72797;SDS011;61084;55.816;37.036;2023-09-12T04:09:57;29.60;;;14.93;;
72797;SDS011;61084;55.816;37.036;2023-09-12T04:12:23;30.10;;;14.63;;
72797;SDS011;61084;55.816;37.036;2023-09-12T04:14:50;33.50;;;14.75;;
72797;SDS011;61084;55.816;37.036;2023-09-12T04:17:20;32.05;;;14.80;;
72797;SDS011;61084;55.816;37.036;2023-09-12T04:19:46;30.85;;;13.80;;
72797;SDS011;61084;55.816;37.036;2023-09-12T04:22:12;33.30;;;15.82;;
72797;SDS011;61084;55.816;37.036;2023-09-12T04:24:39;30.85;;;16.10;;
72797;SDS011;61084;55.816;37.036;2023-09-12T04:27:05;33.58;;;16.48;;
72797;SDS011;61084;55.816;37.036;2023-09-12T04:29:33;34.75;;;16.48;;
72797;SDS011;61084;55.816;37.036;2023-09-12T04:32:03;42.38;;;16.75;;
72797;SDS011;61084;55.816;37.036;2023-09-12T04:34:30;36.03;;;17.27;;
72797;SDS011;61084;55.816;37.036;2023-09-12T04:36:56;37.28;;;18.55;;
72797;SDS011;61084;55.816;37.036;2023-09-12T04:39:23;35.67;;;16.75;;
72797;SDS011;61084;55.816;37.036;2023-09-12T04:41:49;36.20;;;18.27;;
72797;SDS011;61084;55.816;37.036;2023-09-12T04:44:15;38.92;;;18.38;;
72797;SDS011;61084;55.816;37.036;2023-09-12T04:46:41;38.85;;;17.42;;
72797;SDS011;61084;55.816;37.036;2023-09-12T04:49:07;36.60;;;17.73;;
72797;SDS011;61084;55.816;37.036;2023-09-12T04:51:33;35.97;;;17.48;;
72797;SDS011;61084;55.816;37.036;2023-09-12T04:53:59;40.13;;;19.52;;
72797;SDS011;61084;55.816;37.036;2023-09-12T04:56:24;33.58;;;16.73;;
72797;SDS011;61084;55.816;37.036;2023-09-12T04:58:50;37.75;;;17.77;;
72797;SDS011;61084;55.816;37.036;2023-09-12T05:01:16;37.00;;;17.35;;
72797;SDS011;61084;55.816;37.036;2023-09-12T05:03:43;40.53;;;18.35;;
72797;SDS011;61084;55.816;37.036;2023-09-12T05:06:12;44.15;;;20.02;;
72797;SDS011;61084;55.816;37.036;2023-09-12T05:08:39;42.45;;;18.63;;
72797;SDS011;61084;55.816;37.036;2023-09-12T05:11:05;35.47;;;18.35;;
72797;SDS011;61084;55.816;37.036;2023-09-12T05:13:31;43.10;;;18.85;;
72797;SDS011;61084;55.816;37.036;2023-09-12T05:15:57;36.97;;;17.52;;
72797;SDS011;61084;55.816;37.036;2023-09-12T05:18:24;37.67;;;17.02;;
72797;SDS011;61084;55.816;37.036;2023-09-12T05:20:50;37.50;;;17.08;;
72797;SDS011;61084;55.816;37.036;2023-09-12T05:23:15;33.72;;;18.23;;
72797;SDS011;61084;55.816;37.036;2023-09-12T05:25:42;34.78;;;15.80;;
72797;SDS011;61084;55.816;37.036;2023-09-12T05:28:08;38.08;;;17.67;;
72797;SDS011;61084;55.816;37.036;2023-09-12T05:30:34;30.42;;;16.63;;
72797;SDS011;61084;55.816;37.036;2023-09-12T05:33:00;34.47;;;16.55;;
72797;SDS011;61084;55.816;37.036;2023-09-12T05:35:27;32.03;;;16.65;;
72797;SDS011;61084;55.816;37.036;2023-09-12T05:37:53;32.05;;;16.70;;
72797;SDS011;61084;55.816;37.036;2023-09-12T05:40:19;32.78;;;16.77;;
72797;SDS011;61084;55.816;37.036;2023-09-12T05:42:46;30.15;;;16.27;;
72797;SDS011;61084;55.816;37.036;2023-09-12T05:45:12;31.23;;;15.73;;
72797;SDS011;61084;55.816;37.036;2023-09-12T05:47:38;29.58;;;14.63;;
72797;SDS011;61084;55.816;37.036;2023-09-12T05:50:05;31.20;;;15.77;;
72797;SDS011;61084;55.816;37.036;2023-09-12T05:52:33;29.20;;;15.57;;
72797;SDS011;61084;55.816;37.036;2023-09-12T05:55:00;33.33;;;17.30;;
72797;SDS011;61084;55.816;37.036;2023-09-12T05:57:27;32.60;;;15.68;;
72797;SDS011;61084;55.816;37.036;2023-09-12T05:59:53;28.63;;;16.35;;
72797;SDS011;61084;55.816;37.036;2023-09-12T06:02:19;31.08;;;15.38;;
72797;SDS011;61084;55.816;37.036;2023-09-12T06:04:45;30.00;;;15.60;;
72797;SDS011;61084;55.816;37.036;2023-09-12T06:07:11;33.28;;;16.40;;
72797;SDS011;61084;55.816;37.036;2023-09-12T06:09:37;28.35;;;15.98;;
72797;SDS011;61084;55.816;37.036;2023-09-12T06:12:03;31.45;;;15.77;;
72797;SDS011;61084;55.816;37.036;2023-09-12T06:14:29;30.67;;;15.45;;
72797;SDS011;61084;55.816;37.036;2023-09-12T06:16:55;28.35;;;15.68;;
72797;SDS011;61084;55.816;37.036;2023-09-12T06:19:20;28.63;;;13.88;;
72797;SDS011;61084;55.816;37.036;2023-09-12T06:21:46;25.65;;;14.65;;
72797;SDS011;61084;55.816;37.036;2023-09-12T06:24:16;32.58;;;15.63;;
72797;SDS011;61084;55.816;37.036;2023-09-12T06:26:46;27.83;;;15.70;;
72797;SDS011;61084;55.816;37.036;2023-09-12T06:29:13;26.38;;;14.45;;
72797;SDS011;61084;55.816;37.036;2023-09-12T06:31:39;29.83;;;15.52;;
72797;SDS011;61084;55.816;37.036;2023-09-12T06:34:06;22.33;;;12.70;;
72797;SDS011;61084;55.816;37.036;2023-09-12T06:38:59;25.27;;;14.15;;
72797;SDS011;61084;55.816;37.036;2023-09-12T06:41:26;27.50;;;13.27;;
72797;SDS011;61084;55.816;37.036;2023-09-12T06:43:53;26.92;;;13.52;;
72797;SDS011;61084;55.816;37.036;2023-09-12T06:46:19;23.30;;;13.10;;
72797;SDS011;61084;55.816;37.036;2023-09-12T06:48:45;26.98;;;13.73;;
72797;SDS011;61084;55.816;37.036;2023-09-12T06:51:11;23.65;;;13.80;;
72797;SDS011;61084;55.816;37.036;2023-09-12T06:56:04;30.20;;;14.30;;
72797;SDS011;61084;55.816;37.036;2023-09-12T07:00:55;21.58;;;13.32;;
72797;SDS011;61084;55.816;37.036;2023-09-12T07:03:21;23.73;;;12.95;;
72797;SDS011;61084;55.816;37.036;2023-09-12T07:05:48;25.05;;;12.95;;
72797;SDS011;61084;55.816;37.036;2023-09-12T07:08:14;27.52;;;13.65;;
72797;SDS011;61084;55.816;37.036;2023-09-12T07:10:44;23.65;;;12.50;;
72797;SDS011;61084;55.816;37.036;2023-09-12T07:13:11;21.05;;;12.70;;
72797;SDS011;61084;55.816;37.036;2023-09-12T07:15:37;19.38;;;12.85;;
72797;SDS011;61084;55.816;37.036;2023-09-12T07:18:04;25.25;;;13.23;;
72797;SDS011;61084;55.816;37.036;2023-09-12T07:20:32;22.33;;;13.25;;
72797;SDS011;61084;55.816;37.036;2023-09-12T07:22:59;21.88;;;11.98;;
72797;SDS011;61084;55.816;37.036;2023-09-12T07:25:25;22.05;;;12.52;;
72797;SDS011;61084;55.816;37.036;2023-09-12T07:27:51;22.02;;;12.07;;
72797;SDS011;61084;55.816;37.036;2023-09-12T07:30:17;23.92;;;13.20;;
72797;SDS011;61084;55.816;37.036;2023-09-12T07:35:09;20.83;;;11.85;;
72797;SDS011;61084;55.816;37.036;2023-09-12T07:37:35;19.67;;;11.77;;
72797;SDS011;61084;55.816;37.036;2023-09-12T07:40:01;20.30;;;12.20;;
72797;SDS011;61084;55.816;37.036;2023-09-12T07:42:29;21.08;;;12.10;;
72797;SDS011;61084;55.816;37.036;2023-09-12T07:44:55;19.45;;;12.40;;
72797;SDS011;61084;55.816;37.036;2023-09-12T07:47:21;17.52;;;11.57;;
72797;SDS011;61084;55.816;37.036;2023-09-12T07:49:52;19.85;;;12.82;;
72797;SDS011;61084;55.816;37.036;2023-09-12T07:52:19;19.17;;;11.10;;
72797;SDS011;61084;55.816;37.036;2023-09-12T07:54:44;21.33;;;13.40;;
72797;SDS011;61084;55.816;37.036;2023-09-12T07:57:10;18.27;;;12.48;;
72797;SDS011;61084;55.816;37.036;2023-09-12T07:59:36;21.73;;;12.48;;
72797;SDS011;61084;55.816;37.036;2023-09-12T08:02:02;18.90;;;12.27;;
72797;SDS011;61084;55.816;37.036;2023-09-12T08:04:28;21.40;;;12.63;;
72797;SDS011;61084;55.816;37.036;2023-09-12T08:06:54;21.75;;;12.20;;
72797;SDS011;61084;55.816;37.036;2023-09-12T08:09:20;19.35;;;12.27;;
72797;SDS011;61084;55.816;37.036;2023-09-12T08:11:46;20.48;;;12.88;;
72797;SDS011;61084;55.816;37.036;2023-09-12T08:14:11;20.40;;;13.38;;
72797;SDS011;61084;55.816;37.036;2023-09-12T08:16:37;21.30;;;12.32;;
72797;SDS011;61084;55.816;37.036;2023-09-12T08:19:04;17.45;;;11.48;;
72797;SDS011;61084;55.816;37.036;2023-09-12T08:21:29;25.38;;;12.98;;
72797;SDS011;61084;55.816;37.036;2023-09-12T08:23:55;22.75;;;11.80;;
72797;SDS011;61084;55.816;37.036;2023-09-12T08:26:21;24.00;;;12.98;;
72797;SDS011;61084;55.816;37.036;2023-09-12T08:28:47;22.63;;;12.50;;
72797;SDS011;61084;55.816;37.036;2023-09-12T08:31:12;17.60;;;11.85;;
72797;SDS011;61084;55.816;37.036;2023-09-12T08:33:38;20.27;;;11.90;;
72797;SDS011;61084;55.816;37.036;2023-09-12T08:39:49;21.50;;;11.90;;
72797;SDS011;61084;55.816;37.036;2023-09-12T08:42:15;18.83;;;11.38;;
72797;SDS011;61084;55.816;37.036;2023-09-12T08:44:42;18.58;;;11.18;;
72797;SDS011;61084;55.816;37.036;2023-09-12T08:47:09;17.55;;;11.40;;
72797;SDS011;61084;55.816;37.036;2023-09-12T08:49:36;22.30;;;11.65;;
72797;SDS011;61084;55.816;37.036;2023-09-12T08:52:04;21.35;;;12.25;;
72797;SDS011;61084;55.816;37.036;2023-09-12T08:54:31;21.60;;;11.25;;
72797;SDS011;61084;55.816;37.036;2023-09-12T08:56:57;21.65;;;12.38;;
72797;SDS011;61084;55.816;37.036;2023-09-12T09:01:50;21.55;;;11.77;;
72797;SDS011;61084;55.816;37.036;2023-09-12T09:04:18;17.83;;;10.57;;
72797;SDS011;61084;55.816;37.036;2023-09-12T09:06:45;20.48;;;11.07;;
72797;SDS011;61084;55.816;37.036;2023-09-12T09:09:11;17.23;;;11.02;;
72797;SDS011;61084;55.816;37.036;2023-09-12T09:11:38;18.73;;;11.70;;
72797;SDS011;61084;55.816;37.036;2023-09-12T09:14:04;15.73;;;10.27;;
72797;SDS011;61084;55.816;37.036;2023-09-12T09:16:30;16.58;;;10.35;;
72797;SDS011;61084;55.816;37.036;2023-09-12T09:18:59;18.90;;;10.65;;
72797;SDS011;61084;55.816;37.036;2023-09-12T09:21:27;19.83;;;10.45;;
72797;SDS011;61084;55.816;37.036;2023-09-12T09:24:00;18.65;;;11.35;;
72797;SDS011;61084;55.816;37.036;2023-09-12T09:26:41;19.48;;;11.27;;
72797;SDS011;61084;55.816;37.036;2023-09-12T09:29:12;16.20;;;10.75;;
72797;SDS011;61084;55.816;37.036;2023-09-12T09:31:40;24.60;;;10.73;;
72797;SDS011;61084;55.816;37.036;2023-09-12T09:34:14;22.50;;;9.85;;
72797;SDS011;61084;55.816;37.036;2023-09-12T09:36:42;14.73;;;10.07;;
72797;SDS011;61084;55.816;37.036;2023-09-12T09:41:42;16.13;;;10.27;;
72797;SDS011;61084;55.816;37.036;2023-09-12T09:44:08;19.50;;;9.95;;
72797;SDS011;61084;55.816;37.036;2023-09-12T09:49:00;19.27;;;10.73;;
72797;SDS011;61084;55.816;37.036;2023-09-12T09:51:26;23.00;;;12.43;;
72797;SDS011;61084;55.816;37.036;2023-09-12T09:53:52;18.63;;;10.85;;
72797;SDS011;61084;55.816;37.036;2023-09-12T09:56:24;17.80;;;10.88;;
72797;SDS011;61084;55.816;37.036;2023-09-12T09:58:54;20.77;;;10.48;;
72797;SDS011;61084;55.816;37.036;2023-09-12T10:01:22;15.45;;;10.77;;
72797;SDS011;61084;55.816;37.036;2023-09-12T10:03:53;19.15;;;11.45;;
72797;SDS011;61084;55.816;37.036;2023-09-12T10:06:25;15.48;;;10.73;;
72797;SDS011;61084;55.816;37.036;2023-09-12T10:08:53;17.67;;;11.32;;
72797;SDS011;61084;55.816;37.036;2023-09-12T10:11:23;25.23;;;11.57;;
72797;SDS011;61084;55.816;37.036;2023-09-12T10:13:55;20.00;;;11.18;;
72797;SDS011;61084;55.816;37.036;2023-09-12T10:16:23;19.20;;;11.48;;
72797;SDS011;61084;55.816;37.036;2023-09-12T10:21:45;14.23;;;9.38;;
72797;SDS011;61084;55.816;37.036;2023-09-12T10:24:14;17.55;;;9.77;;
72797;SDS011;61084;55.816;37.036;2023-09-12T10:26:41;14.85;;;10.10;;
72797;SDS011;61084;55.816;37.036;2023-09-12T10:29:14;16.00;;;9.93;;
72797;SDS011;61084;55.816;37.036;2023-09-12T10:31:43;14.30;;;8.90;;
72797;SDS011;61084;55.816;37.036;2023-09-12T10:34:10;24.45;;;10.65;;
72797;SDS011;61084;55.816;37.036;2023-09-12T10:36:39;15.10;;;9.63;;
72797;SDS011;61084;55.816;37.036;2023-09-12T10:39:07;18.77;;;11.05;;
72797;SDS011;61084;55.816;37.036;2023-09-12T10:41:37;22.33;;;11.15;;
72797;SDS011;61084;55.816;37.036;2023-09-12T10:44:11;22.48;;;10.40;;
72797;SDS011;61084;55.816;37.036;2023-09-12T10:46:41;19.25;;;11.38;;
72797;SDS011;61084;55.816;37.036;2023-09-12T10:49:09;16.30;;;10.75;;
72797;SDS011;61084;55.816;37.036;2023-09-12T10:51:46;17.67;;;9.32;;
72797;SDS011;61084;55.816;37.036;2023-09-12T10:54:14;16.02;;;9.60;;
72797;SDS011;61084;55.816;37.036;2023-09-12T10:57:01;14.70;;;8.55;;
72797;SDS011;61084;55.816;37.036;2023-09-12T10:59:31;12.95;;;9.50;;
72797;SDS011;61084;55.816;37.036;2023-09-12T11:04:56;13.45;;;7.90;;
72797;SDS011;61084;55.816;37.036;2023-09-12T11:07:46;11.55;;;6.88;;
72797;SDS011;61084;55.816;37.036;2023-09-12T11:12:44;11.98;;;6.18;;
72797;SDS011;61084;55.816;37.036;2023-09-12T11:15:11;10.85;;;6.78;;
72797;SDS011;61084;55.816;37.036;2023-09-12T11:17:50;10.85;;;7.75;;
72797;SDS011;61084;55.816;37.036;2023-09-12T11:20:25;11.68;;;8.07;;
72797;SDS011;61084;55.816;37.036;2023-09-12T11:22:51;12.13;;;7.88;;
72797;SDS011;61084;55.816;37.036;2023-09-12T11:25:23;11.15;;;7.43;;
72797;SDS011;61084;55.816;37.036;2023-09-12T11:30:23;12.18;;;7.53;;
72797;SDS011;61084;55.816;37.036;2023-09-12T11:32:51;14.05;;;7.35;;
72797;SDS011;61084;55.816;37.036;2023-09-12T11:35:22;12.93;;;7.30;;
72797;SDS011;61084;55.816;37.036;2023-09-12T11:37:49;10.38;;;6.80;;
72797;SDS011;61084;55.816;37.036;2023-09-12T11:40:18;11.80;;;7.47;;
72797;SDS011;61084;55.816;37.036;2023-09-12T11:42:49;10.25;;;7.00;;
72797;SDS011;61084;55.816;37.036;2023-09-12T11:47:44;10.50;;;7.07;;
72797;SDS011;61084;55.816;37.036;2023-09-12T11:53:05;10.65;;;6.78;;
72797;SDS011;61084;55.816;37.036;2023-09-12T11:55:34;11.20;;;6.05;;
72797;SDS011;61084;55.816;37.036;2023-09-12T12:03:17;8.63;;;5.65;;
72797;SDS011;61084;55.816;37.036;2023-09-12T12:05:45;9.15;;;5.97;;
72797;SDS011;61084;55.816;37.036;2023-09-12T12:08:11;8.18;;;6.07;;
72797;SDS011;61084;55.816;37.036;2023-09-12T12:10:37;8.38;;;6.25;;
72797;SDS011;61084;55.816;37.036;2023-09-12T12:13:05;12.07;;;6.90;;
72797;SDS011;61084;55.816;37.036;2023-09-12T12:15:31;10.02;;;7.22;;
72797;SDS011;61084;55.816;37.036;2023-09-12T12:17:58;9.23;;;7.15;;
72797;SDS011;61084;55.816;37.036;2023-09-12T12:20:24;12.60;;;7.00;;
72797;SDS011;61084;55.816;37.036;2023-09-12T12:22:50;11.57;;;7.10;;
72797;SDS011;61084;55.816;37.036;2023-09-12T12:25:18;12.02;;;7.30;;
72797;SDS011;61084;55.816;37.036;2023-09-12T12:30:11;14.57;;;6.97;;
72797;SDS011;61084;55.816;37.036;2023-09-12T12:32:45;10.93;;;6.57;;
72797;SDS011;61084;55.816;37.036;2023-09-12T12:35:18;9.02;;;5.85;;
72797;SDS011;61084;55.816;37.036;2023-09-12T12:37:45;10.20;;;6.10;;
72797;SDS011;61084;55.816;37.036;2023-09-12T12:40:14;8.00;;;5.90;;
72797;SDS011;61084;55.816;37.036;2023-09-12T12:42:40;9.63;;;6.75;;
72797;SDS011;61084;55.816;37.036;2023-09-12T12:45:13;10.63;;;6.45;;
72797;SDS011;61084;55.816;37.036;2023-09-12T12:47:44;9.90;;;6.57;;
72797;SDS011;61084;55.816;37.036;2023-09-12T12:50:13;11.95;;;6.70;;
72797;SDS011;61084;55.816;37.036;2023-09-12T12:52:41;10.05;;;6.53;;
72797;SDS011;61084;55.816;37.036;2023-09-12T12:55:11;9.95;;;6.47;;
72797;SDS011;61084;55.816;37.036;2023-09-12T12:57:39;9.98;;;6.45;;
72797;SDS011;61084;55.816;37.036;2023-09-12T13:00:09;7.90;;;6.28;;
72797;SDS011;61084;55.816;37.036;2023-09-12T13:02:37;11.73;;;6.40;;
72797;SDS011;61084;55.816;37.036;2023-09-12T13:05:04;9.50;;;6.07;;
72797;SDS011;61084;55.816;37.036;2023-09-12T13:07:36;9.35;;;5.78;;
72797;SDS011;61084;55.816;37.036;2023-09-12T13:12:30;9.40;;;5.43;;
72797;SDS011;61084;55.816;37.036;2023-09-12T13:17:21;10.10;;;6.07;;
72797;SDS011;61084;55.816;37.036;2023-09-12T13:19:47;8.60;;;6.25;;
72797;SDS011;61084;55.816;37.036;2023-09-12T13:22:13;12.88;;;6.82;;
72797;SDS011;61084;55.816;37.036;2023-09-12T13:24:39;9.45;;;6.75;;
72797;SDS011;61084;55.816;37.036;2023-09-12T13:27:04;7.97;;;6.18;;
72797;SDS011;61084;55.816;37.036;2023-09-12T13:29:30;8.73;;;6.68;;
72797;SDS011;61084;55.816;37.036;2023-09-12T13:31:56;11.93;;;6.97;;
72797;SDS011;61084;55.816;37.036;2023-09-12T13:34:22;8.50;;;6.90;;
72797;SDS011;61084;55.816;37.036;2023-09-12T13:39:14;9.98;;;6.00;;
72797;SDS011;61084;55.816;37.036;2023-09-12T13:41:39;10.50;;;6.45;;
72797;SDS011;61084;55.816;37.036;2023-09-12T13:44:06;8.95;;;6.43;;
72797;SDS011;61084;55.816;37.036;2023-09-12T13:46:31;8.10;;;6.63;;
72797;SDS011;61084;55.816;37.036;2023-09-12T13:48:57;10.77;;;7.38;;
72797;SDS011;61084;55.816;37.036;2023-09-12T13:51:29;17.58;;;10.73;;
72797;SDS011;61084;55.816;37.036;2023-09-12T13:53:55;22.15;;;13.32;;
72797;SDS011;61084;55.816;37.036;2023-09-12T13:56:21;19.67;;;12.73;;
72797;SDS011;61084;55.816;37.036;2023-09-12T13:58:47;11.70;;;7.80;;
72797;SDS011;61084;55.816;37.036;2023-09-12T14:01:13;16.13;;;6.40;;
72797;SDS011;61084;55.816;37.036;2023-09-12T14:03:39;23.73;;;10.30;;
72797;SDS011;61084;55.816;37.036;2023-09-12T14:06:05;30.95;;;18.83;;
72797;SDS011;61084;55.816;37.036;2023-09-12T14:08:30;18.00;;;11.40;;
72797;SDS011;61084;55.816;37.036;2023-09-12T14:10:56;18.83;;;8.63;;
72797;SDS011;61084;55.816;37.036;2023-09-12T14:13:22;12.82;;;8.02;;
72797;SDS011;61084;55.816;37.036;2023-09-12T14:15:48;12.57;;;7.50;;
72797;SDS011;61084;55.816;37.036;2023-09-12T14:18:17;16.27;;;8.38;;
72797;SDS011;61084;55.816;37.036;2023-09-12T14:20:43;27.42;;;12.48;;
72797;SDS011;61084;55.816;37.036;2023-09-12T14:23:09;29.10;;;13.40;;
72797;SDS011;61084;55.816;37.036;2023-09-12T14:25:35;22.80;;;11.80;;
72797;SDS011;61084;55.816;37.036;2023-09-12T14:28:01;20.73;;;10.98;;
72797;SDS011;61084;55.816;37.036;2023-09-12T14:30:29;18.73;;;9.77;;
72797;SDS011;61084;55.816;37.036;2023-09-12T14:33:01;17.88;;;9.32;;
72797;SDS011;61084;55.816;37.036;2023-09-12T14:35:27;20.92;;;11.93;;
72797;SDS011;61084;55.816;37.036;2023-09-12T14:37:53;31.98;;;10.25;;
72797;SDS011;61084;55.816;37.036;2023-09-12T14:40:19;19.65;;;8.50;;
72797;SDS011;61084;55.816;37.036;2023-09-12T14:42:45;15.10;;;8.80;;
72797;SDS011;61084;55.816;37.036;2023-09-12T14:45:11;19.63;;;9.90;;
72797;SDS011;61084;55.816;37.036;2023-09-12T14:47:37;13.95;;;8.20;;
72797;SDS011;61084;55.816;37.036;2023-09-12T14:50:03;11.15;;;7.68;;
72797;SDS011;61084;55.816;37.036;2023-09-12T14:52:30;12.73;;;7.20;;
72797;SDS011;61084;55.816;37.036;2023-09-12T14:54:56;11.25;;;7.80;;
72797;SDS011;61084;55.816;37.036;2023-09-12T14:57:23;13.27;;;7.65;;
72797;SDS011;61084;55.816;37.036;2023-09-12T14:59:52;11.50;;;6.45;;
72797;SDS011;61084;55.816;37.036;2023-09-12T15:02:18;11.75;;;6.95;;
72797;SDS011;61084;55.816;37.036;2023-09-12T15:04:44;12.10;;;6.70;;
72797;SDS011;61084;55.816;37.036;2023-09-12T15:07:09;12.82;;;6.90;;
72797;SDS011;61084;55.816;37.036;2023-09-12T15:09:35;9.13;;;6.53;;
72797;SDS011;61084;55.816;37.036;2023-09-12T15:12:02;11.27;;;7.13;;
72797;SDS011;61084;55.816;37.036;2023-09-12T15:14:28;14.82;;;5.97;;
72797;SDS011;61084;55.816;37.036;2023-09-12T15:16:56;14.70;;;7.65;;
72797;SDS011;61084;55.816;37.036;2023-09-12T15:19:22;12.43;;;7.68;;